createdAt,value
2017-08-11T00:00:02.878Z,0
2017-08-11T00:01:02.566Z,0
2017-08-11T00:02:02.840Z,0
2017-08-11T00:03:03.153Z,0
2017-08-11T00:04:02.813Z,0
2017-08-11T00:05:02.492Z,0
2017-08-11T00:06:02.794Z,0
2017-08-11T00:07:02.462Z,0
2017-08-11T00:08:03.131Z,0
2017-08-11T00:09:02.431Z,0
2017-08-11T00:10:02.721Z,0
2017-08-11T00:11:02.721Z,0
2017-08-11T00:12:03.012Z,0
2017-08-11T00:13:02.670Z,0
2017-08-11T00:14:02.974Z,0
2017-08-11T00:15:02.653Z,0
2017-08-11T00:16:02.632Z,0
2017-08-11T00:17:02.611Z,0
2017-08-11T00:18:02.303Z,0
2017-08-11T00:19:02.581Z,0
2017-08-11T00:20:01.933Z,0
2017-08-11T00:21:02.232Z,0
2017-08-11T00:22:02.552Z,0
2017-08-11T00:23:02.211Z,0
2017-08-11T00:24:02.214Z,0
2017-08-11T00:25:02.496Z,0
2017-08-11T00:26:02.782Z,0
2017-08-11T00:27:02.464Z,0
2017-08-11T00:28:02.120Z,0
2017-08-11T00:29:02.727Z,0
2017-08-11T00:30:02.394Z,0
2017-08-11T00:31:02.073Z,0
2017-08-11T00:32:02.069Z,0
2017-08-11T00:33:02.353Z,0
2017-08-11T00:34:01.723Z,0
2017-08-11T00:35:02.616Z,0
2017-08-11T00:36:02.612Z,0
2017-08-11T00:37:02.613Z,0
2017-08-11T00:38:02.284Z,0
2017-08-11T00:39:01.943Z,0
2017-08-11T00:40:02.541Z,0
2017-08-11T00:41:02.525Z,0
2017-08-11T00:42:02.214Z,0
2017-08-11T00:43:02.497Z,0
2017-08-11T00:44:02.481Z,0
2017-08-11T00:45:02.463Z,0
2017-08-11T00:46:01.843Z,0
2017-08-11T00:47:01.806Z,0
2017-08-11T00:48:02.102Z,0
2017-08-11T00:49:01.465Z,0
2017-08-11T00:50:02.383Z,0
2017-08-11T00:51:02.064Z,0
2017-08-11T00:52:02.346Z,0
2017-08-11T00:53:02.031Z,0
2017-08-11T00:54:02.010Z,0
2017-08-11T00:55:02.304Z,0
2017-08-11T00:56:02.282Z,0
2017-08-11T00:57:02.264Z,0
2017-08-11T00:58:01.953Z,0
2017-08-11T00:59:01.939Z,0
2017-08-11T01:00:01.902Z,0
2017-08-11T01:01:01.892Z,0
2017-08-11T01:02:01.873Z,0
2017-08-11T01:03:02.163Z,0
2017-08-11T01:04:01.831Z,0
2017-08-11T01:05:01.823Z,0
2017-08-11T01:06:01.813Z,0
2017-08-11T01:07:01.499Z,0
2017-08-11T01:08:01.777Z,0
2017-08-11T01:09:02.062Z,0
2017-08-11T01:10:02.059Z,0
2017-08-11T01:11:01.715Z,0
2017-08-11T01:12:01.401Z,0
2017-08-11T01:13:02.002Z,0
2017-08-11T01:14:01.371Z,0
2017-08-11T01:15:01.974Z,0
2017-08-11T01:16:01.351Z,0
2017-08-11T01:17:01.642Z,0
2017-08-11T01:18:01.945Z,0
2017-08-11T01:19:00.993Z,0
2017-08-11T01:20:01.293Z,0
2017-08-11T01:21:01.873Z,0
2017-08-11T01:22:01.842Z,0
2017-08-11T01:23:01.531Z,0
2017-08-11T01:24:01.554Z,0
2017-08-11T01:25:01.501Z,0
2017-08-11T01:26:01.480Z,0
2017-08-11T01:27:01.192Z,0
2017-08-11T01:28:01.786Z,0
2017-08-11T01:29:01.153Z,0
2017-08-11T01:30:01.441Z,0
2017-08-11T01:31:00.872Z,0
2017-08-11T01:32:01.379Z,0
2017-08-11T01:33:01.080Z,0
2017-08-11T01:34:01.153Z,0
2017-08-11T01:35:01.072Z,0
2017-08-11T01:36:01.162Z,0
2017-08-11T01:37:01.307Z,0
2017-08-11T01:38:01.392Z,0
2017-08-11T01:39:01.271Z,0
2017-08-11T01:40:01.044Z,0
2017-08-11T01:41:00.931Z,0
2017-08-11T01:42:01.528Z,0
2017-08-11T01:43:01.310Z,0
2017-08-11T01:44:01.011Z,0
2017-08-11T01:45:00.951Z,0
2017-08-11T01:46:01.462Z,0
2017-08-11T01:47:01.453Z,0
2017-08-11T01:48:00.829Z,0
2017-08-11T01:49:01.441Z,0
2017-08-11T01:50:00.779Z,0
2017-08-11T01:51:01.082Z,0
2017-08-11T01:52:01.073Z,0
2017-08-11T01:53:01.089Z,0
2017-08-11T01:54:01.429Z,0
2017-08-11T01:55:01.379Z,0
2017-08-11T01:56:00.713Z,0
2017-08-11T01:57:00.700Z,0
2017-08-11T01:58:01.371Z,0
2017-08-11T01:59:01.272Z,0
2017-08-11T02:00:00.633Z,0
2017-08-11T02:01:00.927Z,0
2017-08-11T02:02:00.971Z,0
2017-08-11T02:03:00.306Z,0
2017-08-11T02:04:00.991Z,0
2017-08-11T02:05:00.941Z,0
2017-08-11T02:06:00.530Z,0
2017-08-11T02:07:00.811Z,0
2017-08-11T02:08:00.514Z,0
2017-08-11T02:09:01.091Z,0
2017-08-11T02:10:00.760Z,0
2017-08-11T02:11:00.761Z,0
2017-08-11T02:12:00.741Z,0
2017-08-11T02:13:00.413Z,0
2017-08-11T02:14:00.392Z,0
2017-08-11T02:15:00.674Z,0
2017-08-11T02:16:00.668Z,0
2017-08-11T02:17:00.051Z,0
2017-08-11T02:18:00.321Z,0
2017-08-11T02:19:00.336Z,0
2017-08-11T02:20:00.298Z,0
2017-08-11T02:21:00.274Z,0
2017-08-11T02:22:00.878Z,0
2017-08-11T02:22:59.958Z,0
2017-08-11T02:24:00.223Z,0
2017-08-11T02:25:00.515Z,0
2017-08-11T02:26:00.498Z,0
2017-08-11T02:27:00.805Z,0
2017-08-11T02:28:00.164Z,0
2017-08-11T02:29:00.166Z,0
2017-08-11T02:29:59.833Z,0
2017-08-11T02:31:00.744Z,0
2017-08-11T02:32:00.703Z,0
2017-08-11T02:32:59.781Z,0
2017-08-11T02:34:00.722Z,0
2017-08-11T02:35:00.057Z,0
2017-08-11T02:36:00.047Z,0
2017-08-11T02:37:00.025Z,0
2017-08-11T02:38:00.298Z,0
2017-08-11T02:39:00.283Z,0
2017-08-11T02:40:00.562Z,0
2017-08-11T02:41:00.564Z,0
2017-08-11T02:42:00.251Z,0
2017-08-11T02:43:00.533Z,0
2017-08-11T02:44:00.213Z,0
2017-08-11T02:44:59.872Z,0
2017-08-11T02:46:00.173Z,0
2017-08-11T02:47:00.473Z,0
2017-08-11T02:48:00.148Z,0
2017-08-11T02:48:59.830Z,0
2017-08-11T02:50:00.407Z,0
2017-08-11T02:51:00.387Z,0
2017-08-11T02:51:59.763Z,0
2017-08-11T02:52:59.750Z,0
2017-08-11T02:53:59.726Z,0
2017-08-11T02:55:00.317Z,0
2017-08-11T02:56:00.013Z,0
2017-08-11T02:56:59.996Z,0
2017-08-11T02:58:00.277Z,0
2017-08-11T02:58:59.953Z,0
2017-08-11T03:00:00.238Z,0
2017-08-11T03:01:00.224Z,0
2017-08-11T03:01:59.600Z,0
2017-08-11T03:02:59.888Z,0
2017-08-11T03:04:00.184Z,0
2017-08-11T03:04:59.861Z,0
2017-08-11T03:05:59.849Z,0
2017-08-11T03:07:00.130Z,0
2017-08-11T03:08:00.131Z,0
2017-08-11T03:08:59.502Z,0
2017-08-11T03:10:00.082Z,0
2017-08-11T03:10:59.154Z,0
2017-08-11T03:11:59.530Z,0
2017-08-11T03:12:59.733Z,0
2017-08-11T03:13:59.402Z,0
2017-08-11T03:14:59.388Z,0
2017-08-11T03:15:59.683Z,0
2017-08-11T03:16:59.973Z,0
2017-08-11T03:17:59.638Z,0
2017-08-11T03:18:59.641Z,0
2017-08-11T03:19:59.680Z,0
2017-08-11T03:20:59.300Z,0
2017-08-11T03:21:59.890Z,0
2017-08-11T03:22:59.872Z,0
2017-08-11T03:23:59.541Z,0
2017-08-11T03:24:59.628Z,0
2017-08-11T03:25:59.222Z,0
2017-08-11T03:26:59.491Z,0
2017-08-11T03:27:59.512Z,0
2017-08-11T03:28:59.763Z,0
2017-08-11T03:29:59.449Z,0
2017-08-11T03:30:59.747Z,0
2017-08-11T03:31:59.112Z,0
2017-08-11T03:32:59.704Z,0
2017-08-11T03:33:59.380Z,0
2017-08-11T03:34:59.371Z,0
2017-08-11T03:35:59.329Z,0
2017-08-11T03:36:59.032Z,0
2017-08-11T03:37:59.609Z,0
2017-08-11T03:38:59.621Z,0
2017-08-11T03:39:59.419Z,0
2017-08-11T03:40:59.250Z,0
2017-08-11T03:41:59.549Z,0
2017-08-11T03:42:59.531Z,0
2017-08-11T03:43:59.520Z,0
2017-08-11T03:44:59.501Z,0
2017-08-11T03:45:58.870Z,0
2017-08-11T03:46:59.470Z,0
2017-08-11T03:47:58.526Z,0
2017-08-11T03:48:59.431Z,4
2017-08-11T03:49:58.800Z,4
2017-08-11T03:50:58.482Z,4
2017-08-11T03:51:58.770Z,4
2017-08-11T03:52:58.450Z,4
2017-08-11T03:53:59.042Z,8
2017-08-11T03:54:58.721Z,4
2017-08-11T03:55:59.007Z,4
2017-08-11T03:56:58.700Z,8
2017-08-11T03:57:59.278Z,8
2017-08-11T03:58:58.970Z,8
2017-08-11T03:59:58.651Z,8
2017-08-11T04:00:58.927Z,8
2017-08-11T04:01:59.209Z,12
2017-08-11T04:02:59.029Z,8
2017-08-11T04:03:59.191Z,12
2017-08-11T04:04:58.581Z,12
2017-08-11T04:05:58.529Z,12
2017-08-11T04:06:58.829Z,16
2017-08-11T04:07:58.512Z,16
2017-08-11T04:08:58.788Z,20
2017-08-11T04:09:58.784Z,20
2017-08-11T04:10:58.440Z,20
2017-08-11T04:11:58.441Z,20
2017-08-11T04:12:58.724Z,24
2017-08-11T04:13:58.409Z,24
2017-08-11T04:14:59.010Z,24
2017-08-11T04:15:58.684Z,20
2017-08-11T04:16:58.959Z,24
2017-08-11T04:17:58.641Z,24
2017-08-11T04:18:58.640Z,24
2017-08-11T04:19:58.718Z,24
2017-08-11T04:20:58.887Z,28
2017-08-11T04:21:58.874Z,32
2017-08-11T04:22:58.550Z,32
2017-08-11T04:23:58.550Z,32
2017-08-11T04:24:58.841Z,32
2017-08-11T04:25:58.559Z,36
2017-08-11T04:26:58.790Z,36
2017-08-11T04:27:58.479Z,36
2017-08-11T04:28:58.771Z,32
2017-08-11T04:29:58.440Z,36
2017-08-11T04:30:58.409Z,48
2017-08-11T04:31:58.749Z,52
2017-08-11T04:32:58.088Z,60
2017-08-11T04:33:58.069Z,64
2017-08-11T04:34:58.359Z,64
2017-08-11T04:35:58.351Z,68
2017-08-11T04:36:58.630Z,72
2017-08-11T04:37:58.660Z,80
2017-08-11T04:38:58.591Z,92
2017-08-11T04:39:58.286Z,100
2017-08-11T04:40:58.250Z,100
2017-08-11T04:41:58.250Z,100
2017-08-11T04:42:58.222Z,100
2017-08-11T04:43:57.900Z,100
2017-08-11T04:44:58.515Z,104
2017-08-11T04:45:58.221Z,96
2017-08-11T04:46:57.849Z,96
2017-08-11T04:47:58.226Z,100
2017-08-11T04:48:57.809Z,108
2017-08-11T04:49:58.433Z,112
2017-08-11T04:50:57.510Z,112
2017-08-11T04:51:58.194Z,120
2017-08-11T04:52:57.457Z,112
2017-08-11T04:53:57.741Z,120
2017-08-11T04:54:58.352Z,124
2017-08-11T04:55:58.080Z,124
2017-08-11T04:56:57.678Z,120
2017-08-11T04:57:58.089Z,128
2017-08-11T04:58:57.672Z,128
2017-08-11T04:59:58.059Z,128
2017-08-11T05:00:57.352Z,128
2017-08-11T05:01:57.612Z,132
2017-08-11T05:02:57.600Z,140
2017-08-11T05:03:57.876Z,160
2017-08-11T05:04:57.918Z,180
2017-08-11T05:05:57.650Z,188
2017-08-11T05:06:57.807Z,196
2017-08-11T05:07:57.913Z,216
2017-08-11T05:08:57.839Z,228
2017-08-11T05:09:57.829Z,236
2017-08-11T05:10:57.819Z,256
2017-08-11T05:11:58.079Z,260
2017-08-11T05:12:57.750Z,284
2017-08-11T05:13:57.800Z,304
2017-08-11T05:14:57.719Z,348
2017-08-11T05:15:57.774Z,372
2017-08-11T05:16:58.071Z,400
2017-08-11T05:17:57.658Z,428
2017-08-11T05:18:57.961Z,476
2017-08-11T05:19:57.622Z,520
2017-08-11T05:20:57.913Z,556
2017-08-11T05:21:57.630Z,632
2017-08-11T05:22:57.671Z,668
2017-08-11T05:23:57.548Z,696
2017-08-11T05:24:57.542Z,672
2017-08-11T05:25:57.839Z,652
2017-08-11T05:26:57.820Z,648
2017-08-11T05:27:57.167Z,668
2017-08-11T05:28:57.814Z,720
2017-08-11T05:29:57.442Z,812
2017-08-11T05:30:57.520Z,904
2017-08-11T05:31:57.761Z,932
2017-08-11T05:32:57.721Z,944
2017-08-11T05:33:57.739Z,908
2017-08-11T05:34:57.383Z,876
2017-08-11T05:35:57.334Z,848
2017-08-11T05:36:57.689Z,848
2017-08-11T05:37:57.621Z,900
2017-08-11T05:38:57.708Z,976
2017-08-11T05:39:57.586Z,1064
2017-08-11T05:40:57.570Z,1160
2017-08-11T05:41:57.560Z,1216
2017-08-11T05:42:56.632Z,1228
2017-08-11T05:43:57.226Z,1228
2017-08-11T05:44:57.179Z,1208
2017-08-11T05:45:57.532Z,1196
2017-08-11T05:46:56.881Z,1172
2017-08-11T05:47:57.451Z,1136
2017-08-11T05:48:57.123Z,1100
2017-08-11T05:49:57.411Z,1080
2017-08-11T05:50:56.775Z,1012
2017-08-11T05:51:57.393Z,1064
2017-08-11T05:52:57.413Z,1052
2017-08-11T05:53:57.062Z,1032
2017-08-11T05:54:57.021Z,1028
2017-08-11T05:55:57.072Z,996
2017-08-11T05:56:56.990Z,948
2017-08-11T05:57:57.331Z,944
2017-08-11T05:58:56.968Z,920
2017-08-11T05:59:57.249Z,872
2017-08-11T06:00:57.231Z,840
2017-08-11T06:01:57.222Z,868
2017-08-11T06:02:57.211Z,860
2017-08-11T06:03:57.190Z,876
2017-08-11T06:04:57.192Z,900
2017-08-11T06:05:56.839Z,936
2017-08-11T06:06:56.829Z,1032
2017-08-11T06:07:57.122Z,1032
2017-08-11T06:08:56.489Z,1128
2017-08-11T06:09:57.099Z,1180
2017-08-11T06:10:56.776Z,1108
2017-08-11T06:11:57.060Z,1248
2017-08-11T06:12:57.051Z,1324
2017-08-11T06:13:57.025Z,1344
2017-08-11T06:14:56.700Z,1372
2017-08-11T06:15:56.362Z,1396
2017-08-11T06:16:56.971Z,1404
2017-08-11T06:17:56.644Z,1368
2017-08-11T06:18:56.948Z,1336
2017-08-11T06:19:56.642Z,1244
2017-08-11T06:20:56.589Z,1176
2017-08-11T06:21:56.586Z,1092
2017-08-11T06:22:56.891Z,1052
2017-08-11T06:23:56.570Z,1008
2017-08-11T06:24:56.845Z,992
2017-08-11T06:25:56.519Z,988
2017-08-11T06:26:56.810Z,956
2017-08-11T06:27:56.810Z,940
2017-08-11T06:28:56.785Z,960
2017-08-11T06:29:56.475Z,968
2017-08-11T06:30:56.141Z,952
2017-08-11T06:31:56.449Z,940
2017-08-11T06:32:56.709Z,936
2017-08-11T06:33:56.380Z,948
2017-08-11T06:34:56.380Z,952
2017-08-11T06:35:56.659Z,988
2017-08-11T06:36:56.378Z,1016
2017-08-11T06:37:56.321Z,1036
2017-08-11T06:38:56.327Z,1048
2017-08-11T06:39:56.629Z,1084
2017-08-11T06:40:56.586Z,1084
2017-08-11T06:41:56.568Z,1068
2017-08-11T06:42:56.551Z,1012
2017-08-11T06:43:56.238Z,1016
2017-08-11T06:44:56.531Z,996
2017-08-11T06:45:56.489Z,996
2017-08-11T06:46:56.500Z,1004
2017-08-11T06:47:56.159Z,1020
2017-08-11T06:48:56.211Z,1028
2017-08-11T06:49:55.809Z,1048
2017-08-11T06:50:56.130Z,1048
2017-08-11T06:51:56.393Z,1016
2017-08-11T06:52:56.089Z,1032
2017-08-11T06:53:56.051Z,1028
2017-08-11T06:54:55.775Z,1008
2017-08-11T06:55:56.329Z,1056
2017-08-11T06:56:56.039Z,1076
2017-08-11T06:57:56.301Z,1088
2017-08-11T06:58:55.984Z,1080
2017-08-11T06:59:56.270Z,1076
2017-08-11T07:00:55.967Z,1064
2017-08-11T07:01:55.681Z,1080
2017-08-11T07:02:55.610Z,1052
2017-08-11T07:03:55.901Z,1076
2017-08-11T07:04:56.178Z,1016
2017-08-11T07:05:55.562Z,1028
2017-08-11T07:06:55.869Z,1080
2017-08-11T07:07:55.520Z,1080
2017-08-11T07:08:55.519Z,1092
2017-08-11T07:09:55.551Z,1064
2017-08-11T07:10:55.788Z,1080
2017-08-11T07:11:55.836Z,1104
2017-08-11T07:12:55.443Z,1120
2017-08-11T07:13:56.051Z,1132
2017-08-11T07:14:55.408Z,1164
2017-08-11T07:15:55.730Z,1252
2017-08-11T07:16:55.380Z,1436
2017-08-11T07:17:55.735Z,1584
2017-08-11T07:18:55.678Z,1744
2017-08-11T07:19:55.339Z,1784
2017-08-11T07:20:55.683Z,1776
2017-08-11T07:21:55.913Z,1844
2017-08-11T07:22:55.999Z,1808
2017-08-11T07:23:55.582Z,1824
2017-08-11T07:24:55.572Z,1748
2017-08-11T07:25:55.542Z,1744
2017-08-11T07:26:54.930Z,1708
2017-08-11T07:27:55.192Z,1688
2017-08-11T07:28:55.188Z,1672
2017-08-11T07:29:55.479Z,1708
2017-08-11T07:30:55.892Z,1796
2017-08-11T07:31:55.578Z,1876
2017-08-11T07:32:55.830Z,1924
2017-08-11T07:33:55.411Z,2052
2017-08-11T07:34:55.720Z,2184
2017-08-11T07:35:55.082Z,2152
2017-08-11T07:36:55.786Z,2224
2017-08-11T07:38:01.470Z,2240
2017-08-11T07:38:55.349Z,2244
2017-08-11T07:39:55.771Z,2192
2017-08-11T07:40:55.720Z,2076
2017-08-11T07:41:55.340Z,1936
2017-08-11T07:42:55.325Z,1916
2017-08-11T07:43:55.379Z,1872
2017-08-11T07:44:55.248Z,1924
2017-08-11T07:45:55.211Z,1812
2017-08-11T07:46:55.591Z,1780
2017-08-11T07:47:55.518Z,1776
2017-08-11T07:48:55.238Z,1908
2017-08-11T07:49:55.162Z,1908
2017-08-11T07:50:55.154Z,1856
2017-08-11T07:51:55.153Z,1764
2017-08-11T07:52:55.439Z,1772
2017-08-11T07:53:55.109Z,1704
2017-08-11T07:54:55.399Z,1860
2017-08-11T07:55:55.058Z,1912
2017-08-11T07:56:55.408Z,1980
2017-08-11T07:57:55.046Z,1988
2017-08-11T07:58:55.382Z,1880
2017-08-11T07:59:55.304Z,1876
2017-08-11T08:00:55.324Z,1944
2017-08-11T08:01:55.300Z,1908
2017-08-11T08:02:54.942Z,2028
2017-08-11T08:03:55.260Z,1952
2017-08-11T08:04:55.262Z,1756
2017-08-11T08:05:55.255Z,1864
2017-08-11T08:06:55.239Z,1672
2017-08-11T08:07:55.239Z,1528
2017-08-11T08:08:55.204Z,1620
2017-08-11T08:09:55.368Z,1532
2017-08-11T08:10:55.178Z,1548
2017-08-11T08:11:55.114Z,1936
2017-08-11T08:12:55.082Z,1900
2017-08-11T08:13:55.220Z,2148
2017-08-11T08:14:55.074Z,2196
2017-08-11T08:15:54.762Z,2340
2017-08-11T08:16:55.052Z,2436
2017-08-11T08:17:55.010Z,2384
2017-08-11T08:18:55.114Z,2236
2017-08-11T08:19:54.982Z,2440
2017-08-11T08:20:54.360Z,2328
2017-08-11T08:21:54.360Z,2284
2017-08-11T08:22:54.612Z,2196
2017-08-11T08:23:55.107Z,2544
2017-08-11T08:24:54.580Z,2472
2017-08-11T08:25:54.893Z,2608
2017-08-11T08:26:54.859Z,2852
2017-08-11T08:27:54.551Z,2788
2017-08-11T08:28:54.831Z,2880
2017-08-11T08:29:54.820Z,2920
2017-08-11T08:30:54.801Z,3080
2017-08-11T08:31:54.172Z,3224
2017-08-11T08:32:54.150Z,3044
2017-08-11T08:33:54.141Z,3068
2017-08-11T08:34:54.731Z,3220
2017-08-11T08:35:54.143Z,3096
2017-08-11T08:36:54.712Z,3096
2017-08-11T08:37:54.071Z,3084
2017-08-11T08:38:54.370Z,3116
2017-08-11T08:39:54.691Z,3040
2017-08-11T08:40:54.370Z,3120
2017-08-11T08:41:54.616Z,3360
2017-08-11T08:42:54.621Z,3624
2017-08-11T08:43:54.280Z,3820
2017-08-11T08:44:53.960Z,4060
2017-08-11T08:45:54.258Z,4304
2017-08-11T08:46:54.240Z,4440
2017-08-11T08:47:54.541Z,4344
2017-08-11T08:48:54.223Z,4072
2017-08-11T08:49:54.748Z,4020
2017-08-11T08:50:53.871Z,4028
2017-08-11T08:51:54.472Z,4208
2017-08-11T08:52:54.143Z,4096
2017-08-11T08:53:53.832Z,3804
2017-08-11T08:54:54.438Z,3768
2017-08-11T08:55:54.118Z,3532
2017-08-11T08:56:54.400Z,3868
2017-08-11T08:57:54.081Z,4428
2017-08-11T08:58:53.754Z,4416
2017-08-11T08:59:54.352Z,3948
2017-08-11T09:00:54.027Z,4632
2017-08-11T09:01:54.312Z,5604
2017-08-11T09:02:53.691Z,6280
2017-08-11T09:03:53.681Z,6936
2017-08-11T09:04:53.969Z,7436
2017-08-11T09:05:53.953Z,7364
2017-08-11T09:06:53.921Z,6488
2017-08-11T09:07:53.914Z,5216
2017-08-11T09:08:53.933Z,4816
2017-08-11T09:09:53.901Z,4704
2017-08-11T09:10:54.193Z,4520
2017-08-11T09:11:54.172Z,4044
2017-08-11T09:12:54.173Z,4140
2017-08-11T09:13:53.538Z,3428
2017-08-11T09:14:54.121Z,3288
2017-08-11T09:15:54.020Z,2996
2017-08-11T09:16:53.790Z,3052
2017-08-11T09:17:54.070Z,3488
2017-08-11T09:18:53.778Z,3808
2017-08-11T09:19:54.043Z,3552
2017-08-11T09:20:54.039Z,3508
2017-08-11T09:21:54.042Z,3088
2017-08-11T09:22:53.993Z,3248
2017-08-11T09:23:53.983Z,3560
2017-08-11T09:24:53.981Z,3700
2017-08-11T09:25:53.041Z,4164
2017-08-11T09:26:53.947Z,5276
2017-08-11T09:27:53.918Z,5532
2017-08-11T09:28:53.911Z,5336
2017-08-11T09:29:53.632Z,4716
2017-08-11T09:30:53.881Z,4060
2017-08-11T09:31:53.859Z,3544
2017-08-11T09:32:53.692Z,3012
2017-08-11T09:33:53.856Z,2664
2017-08-11T09:34:53.861Z,2316
2017-08-11T09:35:53.493Z,2176
2017-08-11T09:36:53.530Z,2268
2017-08-11T09:37:53.170Z,2436
2017-08-11T09:38:53.480Z,2516
2017-08-11T09:39:53.773Z,2700
2017-08-11T09:40:53.740Z,2788
2017-08-11T09:41:53.781Z,2644
2017-08-11T09:42:53.730Z,2728
2017-08-11T09:43:53.772Z,2920
2017-08-11T09:44:53.789Z,3260
2017-08-11T09:45:53.039Z,3788
2017-08-11T09:46:53.726Z,4428
2017-08-11T09:47:53.328Z,5128
2017-08-11T09:48:52.995Z,5464
2017-08-11T09:49:53.299Z,5688
2017-08-11T09:50:53.272Z,6728
2017-08-11T09:51:53.361Z,6656
2017-08-11T09:52:53.563Z,6148
2017-08-11T09:53:53.243Z,5532
2017-08-11T09:54:53.543Z,5060
2017-08-11T09:55:53.208Z,4704
2017-08-11T09:56:53.497Z,4444
2017-08-11T09:57:52.872Z,4172
2017-08-11T09:58:53.150Z,4028
2017-08-11T09:59:53.180Z,3744
2017-08-11T10:00:52.810Z,3460
2017-08-11T10:01:53.122Z,3100
2017-08-11T10:02:53.091Z,2760
2017-08-11T10:03:53.444Z,2516
2017-08-11T10:04:53.390Z,2508
2017-08-11T10:05:53.105Z,2508
2017-08-11T10:06:52.740Z,2404
2017-08-11T10:07:53.081Z,2300
2017-08-11T10:08:53.011Z,2388
2017-08-11T10:09:52.704Z,2400
2017-08-11T10:10:52.989Z,2460
2017-08-11T10:11:52.963Z,2480
2017-08-11T10:12:53.262Z,2420
2017-08-11T10:13:52.934Z,2576
2017-08-11T10:14:53.223Z,2700
2017-08-11T10:15:53.217Z,2492
2017-08-11T10:16:53.264Z,2120
2017-08-11T10:17:53.166Z,1916
2017-08-11T10:18:53.230Z,1880
2017-08-11T10:19:53.140Z,1704
2017-08-11T10:20:52.832Z,1576
2017-08-11T10:21:53.122Z,1496
2017-08-11T10:22:53.153Z,1548
2017-08-11T10:23:52.831Z,1740
2017-08-11T10:24:52.813Z,1896
2017-08-11T10:25:52.810Z,2128
2017-08-11T10:26:53.055Z,2332
2017-08-11T10:27:52.786Z,2552
2017-08-11T10:28:52.732Z,2780
2017-08-11T10:29:53.012Z,2984
2017-08-11T10:30:52.697Z,3252
2017-08-11T10:31:52.961Z,3548
2017-08-11T10:32:52.969Z,3864
2017-08-11T10:33:52.944Z,4188
2017-08-11T10:34:52.934Z,4700
2017-08-11T10:35:52.593Z,5548
2017-08-11T10:36:52.893Z,6468
2017-08-11T10:37:52.893Z,6956
2017-08-11T10:38:52.866Z,6708
2017-08-11T10:39:52.856Z,7280
2017-08-11T10:40:52.841Z,7520
2017-08-11T10:41:52.888Z,7036
2017-08-11T10:42:52.245Z,6436
2017-08-11T10:43:52.786Z,6256
2017-08-11T10:44:52.482Z,6068
2017-08-11T10:45:52.764Z,5436
2017-08-11T10:46:52.443Z,5056
2017-08-11T10:47:52.757Z,4820
2017-08-11T10:48:52.729Z,4336
2017-08-11T10:49:52.714Z,3992
2017-08-11T10:50:52.376Z,3740
2017-08-11T10:51:52.363Z,3420
2017-08-11T10:52:52.353Z,2960
2017-08-11T10:53:52.347Z,2840
2017-08-11T10:54:52.042Z,2680
2017-08-11T10:55:52.657Z,2304
2017-08-11T10:56:52.443Z,2024
2017-08-11T10:57:52.603Z,1996
2017-08-11T10:58:52.569Z,1904
2017-08-11T10:59:52.253Z,1784
2017-08-11T11:00:52.264Z,1824
2017-08-11T11:01:51.922Z,1960
2017-08-11T11:02:52.524Z,1880
2017-08-11T11:03:52.264Z,1900
2017-08-11T11:04:51.642Z,1980
2017-08-11T11:05:52.155Z,1992
2017-08-11T11:06:52.475Z,2012
2017-08-11T11:07:51.835Z,2076
2017-08-11T11:08:52.429Z,2172
2017-08-11T11:09:52.421Z,2272
2017-08-11T11:10:51.921Z,2396
2017-08-11T11:11:52.152Z,2608
2017-08-11T11:12:52.382Z,2828
2017-08-11T11:13:52.344Z,3100
2017-08-11T11:14:52.350Z,3512
2017-08-11T11:15:52.243Z,4016
2017-08-11T11:16:52.308Z,4444
2017-08-11T11:17:52.288Z,4688
2017-08-11T11:18:52.288Z,4736
2017-08-11T11:19:51.966Z,4712
2017-08-11T11:20:51.356Z,4628
2017-08-11T11:21:51.938Z,4444
2017-08-11T11:22:51.912Z,4108
2017-08-11T11:23:51.594Z,3776
2017-08-11T11:24:51.583Z,3120
2017-08-11T11:25:52.173Z,2656
2017-08-11T11:26:51.553Z,2896
2017-08-11T11:27:51.515Z,2740
2017-08-11T11:28:51.823Z,2636
2017-08-11T11:29:51.948Z,2584
2017-08-11T11:30:52.091Z,2708
2017-08-11T11:31:51.869Z,2852
2017-08-11T11:32:51.766Z,2896
2017-08-11T11:33:51.763Z,2904
2017-08-11T11:34:51.842Z,3000
2017-08-11T11:35:51.415Z,2944
2017-08-11T11:36:51.714Z,2628
2017-08-11T11:37:52.091Z,2272
2017-08-11T11:38:51.700Z,2036
2017-08-11T11:39:52.013Z,1916
2017-08-11T11:40:51.973Z,1884
2017-08-11T11:41:52.075Z,1904
2017-08-11T11:42:51.931Z,1964
2017-08-11T11:43:51.952Z,2048
2017-08-11T11:44:51.585Z,2096
2017-08-11T11:45:51.585Z,2092
2017-08-11T11:46:51.585Z,2200
2017-08-11T11:47:51.272Z,2404
2017-08-11T11:48:51.874Z,2508
2017-08-11T11:49:51.866Z,2564
2017-08-11T11:50:51.494Z,2576
2017-08-11T11:51:51.805Z,2640
2017-08-11T11:52:51.134Z,2768
2017-08-11T11:53:51.142Z,2916
2017-08-11T11:54:51.153Z,3060
2017-08-11T11:55:51.447Z,3240
2017-08-11T11:56:51.408Z,3364
2017-08-11T11:57:51.702Z,3552
2017-08-11T11:58:51.689Z,3872
2017-08-11T11:59:51.363Z,4264
2017-08-11T12:00:51.403Z,4756
2017-08-11T12:01:51.641Z,5304
2017-08-11T12:02:51.331Z,5768
2017-08-11T12:03:51.613Z,6108
2017-08-11T12:04:51.301Z,6820
2017-08-11T12:05:51.274Z,7632
2017-08-11T12:06:51.275Z,8092
2017-08-11T12:07:51.231Z,8400
2017-08-11T12:08:51.533Z,8572
2017-08-11T12:09:51.577Z,8872
2017-08-11T12:10:50.893Z,8484
2017-08-11T12:11:51.193Z,7832
2017-08-11T12:12:51.183Z,7136
2017-08-11T12:13:51.143Z,6504
2017-08-11T12:14:50.835Z,5960
2017-08-11T12:15:51.113Z,5468
2017-08-11T12:16:50.795Z,4960
2017-08-11T12:17:51.113Z,4476
2017-08-11T12:18:50.479Z,4084
2017-08-11T12:19:51.392Z,3868
2017-08-11T12:20:51.072Z,3620
2017-08-11T12:21:51.382Z,3436
2017-08-11T12:22:51.340Z,3360
2017-08-11T12:23:51.305Z,3332
2017-08-11T12:24:51.004Z,3292
2017-08-11T12:25:50.993Z,3160
2017-08-11T12:26:51.273Z,3012
2017-08-11T12:27:50.951Z,2916
2017-08-11T12:28:51.243Z,2752
2017-08-11T12:29:50.634Z,2732
2017-08-11T12:30:50.933Z,2840
2017-08-11T12:31:50.591Z,2828
2017-08-11T12:32:50.905Z,2800
2017-08-11T12:33:50.862Z,2784
2017-08-11T12:34:51.173Z,2664
2017-08-11T12:35:50.524Z,2392
2017-08-11T12:36:50.510Z,2292
2017-08-11T12:37:51.113Z,2164
2017-08-11T12:38:50.806Z,1888
2017-08-11T12:39:51.083Z,1608
2017-08-11T12:40:51.097Z,1500
2017-08-11T12:41:50.760Z,1532
2017-08-11T12:42:50.750Z,1544
2017-08-11T12:43:50.732Z,1516
2017-08-11T12:44:50.755Z,1564
2017-08-11T12:45:50.704Z,1608
2017-08-11T12:46:50.993Z,1556
2017-08-11T12:47:50.679Z,1524
2017-08-11T12:48:50.704Z,1432
2017-08-11T12:49:50.713Z,1416
2017-08-11T12:50:50.635Z,1428
2017-08-11T12:51:50.926Z,1412
2017-08-11T12:52:50.927Z,1392
2017-08-11T12:53:50.924Z,1368
2017-08-11T12:54:50.554Z,1332
2017-08-11T12:55:50.620Z,1312
2017-08-11T12:56:50.863Z,1316
2017-08-11T12:57:50.524Z,1312
2017-08-11T12:58:50.196Z,1308
2017-08-11T12:59:50.803Z,1296
2017-08-11T13:00:50.569Z,1280
2017-08-11T13:01:50.472Z,1196
2017-08-11T13:02:50.749Z,1104
2017-08-11T13:03:51.504Z,1040
2017-08-11T13:04:50.414Z,988
2017-08-11T13:05:50.411Z,972
2017-08-11T13:06:50.395Z,956
2017-08-11T13:07:50.361Z,936
2017-08-11T13:08:50.671Z,884
2017-08-11T13:09:50.642Z,848
2017-08-11T13:10:50.450Z,828
2017-08-11T13:11:50.337Z,812
2017-08-11T13:12:50.653Z,812
2017-08-11T13:13:50.309Z,804
2017-08-11T13:14:50.366Z,792
2017-08-11T13:15:50.261Z,788
2017-08-11T13:16:50.545Z,768
2017-08-11T13:17:50.585Z,764
2017-08-11T13:18:50.584Z,768
2017-08-11T13:19:50.507Z,788
2017-08-11T13:20:50.183Z,788
2017-08-11T13:21:50.227Z,780
2017-08-11T13:22:50.164Z,764
2017-08-11T13:23:50.475Z,764
2017-08-11T13:24:50.123Z,788
2017-08-11T13:25:49.794Z,780
2017-08-11T13:26:50.475Z,760
2017-08-11T13:27:50.374Z,756
2017-08-11T13:28:50.369Z,760
2017-08-11T13:29:50.347Z,768
2017-08-11T13:30:50.485Z,784
2017-08-11T13:31:50.328Z,824
2017-08-11T13:32:49.758Z,824
2017-08-11T13:33:50.004Z,804
2017-08-11T13:34:50.294Z,788
2017-08-11T13:35:49.960Z,768
2017-08-11T13:36:49.919Z,748
2017-08-11T13:37:50.267Z,756
2017-08-11T13:38:49.913Z,768
2017-08-11T13:39:49.933Z,764
2017-08-11T13:40:49.872Z,760
2017-08-11T13:41:49.861Z,744
2017-08-11T13:42:50.144Z,736
2017-08-11T13:43:49.849Z,732
2017-08-11T13:44:50.102Z,720
2017-08-11T13:45:49.480Z,732
2017-08-11T13:46:49.793Z,732
2017-08-11T13:47:50.172Z,728
2017-08-11T13:48:50.073Z,720